Time;durP1;ratioP1;P1;durP2;ratioP2;P2;SDS_P1;SDS_P2;PMS_P1;PMS_P2;Temp;Humidity;BMP_temperature;BMP_pressure;BME280_temperature;BME280_humidity;BME280_pressure;Samples;Min_cycle;Max_cycle;Signal;HPM_P1;HPM_P2
2023/07/06 00:00:32;;;;;;;4.40;2.40;;;13.80;99.90;;;;;;4997806;28;20209;-87
2023/07/06 00:03:00;;;;;;;5.43;2.60;;;13.80;99.90;;;;;;4997469;28;20633;-88
2023/07/06 00:05:29;;;;;;;5.27;2.40;;;13.80;99.90;;;;;;4978501;28;20623;-88
2023/07/06 00:07:56;;;;;;;6.13;2.50;;;13.80;99.90;;;;;;4994458;28;20213;-88
2023/07/06 00:10:24;;;;;;;4.67;2.50;;;13.70;99.90;;;;;;4997131;28;20702;-89
2023/07/06 00:12:50;;;;;;;6.93;2.60;;;13.70;99.90;;;;;;4997351;28;20199;-89
2023/07/06 00:15:18;;;;;;;3.73;2.50;;;13.70;99.90;;;;;;4997768;28;20205;-88
2023/07/06 00:17:45;;;;;;;8.10;2.70;;;13.70;99.90;;;;;;4997656;28;20670;-89
2023/07/06 00:20:14;;;;;;;3.33;2.57;;;13.70;99.90;;;;;;4997339;28;20201;-88
2023/07/06 00:22:41;;;;;;;3.97;2.63;;;13.70;99.90;;;;;;4997749;28;20205;-88
2023/07/06 00:25:08;;;;;;;3.67;2.07;;;13.60;99.90;;;;;;4997231;28;20656;-89
2023/07/06 00:27:36;;;;;;;4.63;2.60;;;13.60;99.90;;;;;;4997356;28;20256;-90
2023/07/06 00:30:18;;;;;;;4.97;2.53;;;13.60;99.90;;;;;;4997132;28;20687;-87
2023/07/06 00:32:47;;;;;;;5.63;2.60;;;13.60;99.90;;;;;;4996798;28;20291;-88
2023/07/06 00:35:16;;;;;;;5.83;2.67;;;13.50;99.90;;;;;;4997123;28;20236;-89
2023/07/06 00:37:43;;;;;;;5.53;2.50;;;13.50;1.00;;;;;;4997364;28;20670;-87
2023/07/06 00:40:13;;;;;;;3.60;2.50;;;13.50;99.90;;;;;;4991448;28;20189;-88
2023/07/06 00:42:41;;;;;;;7.20;2.60;;;13.50;99.90;;;;;;4983251;28;20211;-88
2023/07/06 00:45:10;;;;;;;5.47;2.90;;;13.50;99.90;;;;;;4996501;28;20251;-88
2023/07/06 00:47:41;;;;;;;3.37;2.50;;;13.40;99.90;;;;;;4997331;28;20201;-90
2023/07/06 00:50:12;;;;;;;3.77;2.47;;;13.40;99.90;;;;;;4997382;28;20263;-88
2023/07/06 00:52:48;;;;;;;4.27;2.60;;;13.40;1.00;;;;;;4997317;28;20184;-88
2023/07/06 00:55:17;;;;;;;6.70;2.47;;;13.40;99.90;;;;;;4997159;28;20214;-88
2023/07/06 00:57:47;;;;;;;4.97;2.90;;;13.30;1.00;;;;;;4997256;28;20195;-87
2023/07/06 01:00:20;;;;;;;6.70;2.80;;;13.30;99.90;;;;;;4997053;28;20242;-89
2023/07/06 01:02:51;;;;;;;5.43;2.60;;;13.30;99.90;;;;;;4997899;28;20220;-88
2023/07/06 01:05:19;;;;;;;5.03;2.20;;;13.30;99.90;;;;;;4997633;28;20231;-89
2023/07/06 01:07:50;;;;;;;7.87;2.80;;;13.20;99.90;;;;;;4997695;28;20201;-89
2023/07/06 01:10:19;;;;;;;5.43;2.50;;;13.30;99.90;;;;;;4998307;28;20205;-89
2023/07/06 01:12:46;;;;;;;7.57;2.70;;;13.30;99.90;;;;;;4988525;28;20252;-89
2023/07/06 01:15:16;;;;;;;7.20;2.97;;;13.20;99.90;;;;;;4995512;28;20191;-88
2023/07/06 01:17:53;;;;;;;3.13;2.50;;;13.20;99.90;;;;;;4997889;28;20254;-89
2023/07/06 01:20:30;;;;;;;4.50;2.63;;;13.20;99.90;;;;;;4997280;28;20180;-88
2023/07/06 01:23:43;;;;;;;6.00;2.83;;;13.20;99.90;;;;;;4997401;28;20191;-88
2023/07/06 01:26:25;;;;;;;6.93;2.73;;;13.20;99.90;;;;;;4997103;28;20231;-88
2023/07/06 01:29:36;;;;;;;4.80;2.70;;;13.20;99.90;;;;;;4997257;28;20278;-90
2023/07/06 01:32:07;;;;;;;3.70;2.30;;;13.10;99.90;;;;;;4899308;29;20202;-86
2023/07/06 01:34:41;;;;;;;5.67;2.67;;;13.10;99.90;;;;;;4899076;29;20219;-89
2023/07/06 01:37:14;;;;;;;5.20;2.67;;;13.00;99.90;;;;;;4899435;29;20214;-86
2023/07/06 01:39:41;;;;;;;5.80;2.80;;;13.00;99.90;;;;;;4899206;29;20319;-87
2023/07/06 01:42:31;;;;;;;5.60;2.90;;;12.90;99.90;;;;;;4900884;29;20202;-87
2023/07/06 01:45:02;;;;;;;6.63;3.53;;;12.80;99.90;;;;;;4889338;29;20207;-86
2023/07/06 01:47:33;;;;;;;5.87;3.47;;;12.80;99.90;;;;;;4902355;29;20226;-88
2023/07/06 01:50:03;;;;;;;4.40;3.30;;;12.80;99.90;;;;;;4901910;29;20201;-86
2023/07/06 01:52:54;;;;;;;8.77;3.57;;;12.80;1.00;;;;;;4896671;29;20217;-89
2023/07/06 01:55:26;;;;;;;7.43;3.40;;;12.80;1.00;;;;;;4893299;29;20241;-89
2023/07/06 01:58:05;;;;;;;9.53;3.37;;;12.70;99.90;;;;;;4904139;29;20211;-89
2023/07/06 02:00:35;;;;;;;5.50;3.47;;;12.70;1.00;;;;;;4906144;29;20233;-90
2023/07/06 02:03:06;;;;;;;5.60;3.30;;;12.70;1.00;;;;;;4957081;28;20203;-88
2023/07/06 02:05:36;;;;;;;4.33;2.90;;;12.70;1.00;;;;;;5005282;28;20189;-89
2023/07/06 02:08:05;;;;;;;4.73;3.17;;;12.60;1.00;;;;;;5004572;28;20250;-89
2023/07/06 02:10:32;;;;;;;5.33;2.80;;;12.60;1.00;;;;;;5005881;28;20229;-88
2023/07/06 02:12:59;;;;;;;5.23;2.87;;;12.60;1.00;;;;;;5003307;28;20198;-89
2023/07/06 02:15:27;;;;;;;4.07;2.83;;;12.60;1.00;;;;;;5005073;28;20200;-88
2023/07/06 02:17:55;;;;;;;4.67;2.80;;;12.60;1.00;;;;;;4984592;28;20737;-89
2023/07/06 02:20:24;;;;;;;6.23;3.20;;;12.60;1.00;;;;;;5003780;28;20218;-88
2023/07/06 02:22:51;;;;;;;5.50;3.07;;;12.70;1.00;;;;;;5005592;28;20225;-89
2023/07/06 02:25:20;;;;;;;5.83;3.63;;;12.60;1.00;;;;;;5003648;28;20228;-87
2023/07/06 02:27:47;;;;;;;8.40;2.90;;;12.70;1.00;;;;;;5003950;28;20648;-90
2023/07/06 02:30:14;;;;;;;5.40;3.10;;;12.70;1.00;;;;;;5003358;28;20203;-90
2023/07/06 02:32:41;;;;;;;4.33;2.90;;;12.70;1.00;;;;;;5003697;28;20196;-88
2023/07/06 02:35:09;;;;;;;6.03;2.60;;;12.70;1.00;;;;;;4986811;28;20223;-87
2023/07/06 02:37:38;;;;;;;7.13;3.03;;;12.70;1.00;;;;;;4997768;28;20199;-89
2023/07/06 02:40:08;;;;;;;7.13;3.07;;;12.70;1.00;;;;;;5002036;28;20250;-88
2023/07/06 02:42:35;;;;;;;6.97;3.50;;;12.70;1.00;;;;;;5002163;28;20202;-88
2023/07/06 02:45:04;;;;;;;7.47;3.00;;;12.70;1.00;;;;;;5001946;28;20238;-89
2023/07/06 02:47:31;;;;;;;6.47;3.13;;;12.70;1.00;;;;;;4998586;28;20199;-89
2023/07/06 02:49:58;;;;;;;6.50;3.20;;;12.70;1.00;;;;;;5001093;28;20203;-88
2023/07/06 02:52:25;;;;;;;6.17;3.00;;;12.70;1.00;;;;;;5001194;28;20230;-86
2023/07/06 02:54:53;;;;;;;4.47;3.00;;;12.80;1.00;;;;;;5001564;28;20206;-88
2023/07/06 02:57:20;;;;;;;4.33;2.83;;;12.80;1.00;;;;;;5001879;28;20196;-88
2023/07/06 02:59:47;;;;;;;7.60;3.40;;;12.80;1.00;;;;;;5002718;28;20199;-87
2023/07/06 03:02:15;;;;;;;4.70;3.23;;;12.80;1.00;;;;;;5002318;28;20203;-87
2023/07/06 03:04:42;;;;;;;7.80;3.40;;;12.90;1.00;;;;;;5001213;28;20200;-88
2023/07/06 03:07:09;;;;;;;5.10;3.10;;;12.90;1.00;;;;;;5000269;28;20724;-90
2023/07/06 03:09:36;;;;;;;5.47;3.30;;;13.00;1.00;;;;;;5000270;28;20219;-88
2023/07/06 03:12:06;;;;;;;7.83;3.13;;;13.00;1.00;;;;;;5000768;28;20228;-88
2023/07/06 03:14:33;;;;;;;4.73;3.23;;;13.00;1.00;;;;;;4985411;28;20256;-87
2023/07/06 03:17:00;;;;;;;7.10;3.40;;;13.00;1.00;;;;;;4996015;28;20201;-90
2023/07/06 03:19:27;;;;;;;5.93;3.20;;;13.10;1.00;;;;;;4999443;28;20276;-87
2023/07/06 03:21:58;;;;;;;4.80;2.97;;;13.10;1.00;;;;;;5000656;28;20238;-87
2023/07/06 03:24:26;;;;;;;3.83;2.93;;;13.10;1.00;;;;;;4999910;28;20565;-88
2023/07/06 03:26:54;;;;;;;6.17;2.97;;;13.20;1.00;;;;;;5000578;28;20203;-90
2023/07/06 03:29:22;;;;;;;8.67;3.50;;;13.20;1.00;;;;;;5000169;28;20265;-89
2023/07/06 03:31:49;;;;;;;4.80;3.10;;;13.20;99.90;;;;;;5001759;28;20612;-90
2023/07/06 03:34:18;;;;;;;6.30;3.23;;;13.30;99.90;;;;;;5000814;28;20257;-88
2023/07/06 03:36:45;;;;;;;3.47;2.97;;;13.30;99.90;;;;;;4999931;28;20214;-88
2023/07/06 03:39:12;;;;;;;4.97;3.20;;;13.30;99.90;;;;;;4985042;28;20225;-89
2023/07/06 03:41:39;;;;;;;6.90;3.47;;;13.40;99.90;;;;;;5000830;28;20780;-88
2023/07/06 03:44:08;;;;;;;3.57;3.00;;;13.40;1.00;;;;;;4999211;28;20192;-86
2023/07/06 03:46:36;;;;;;;5.67;3.53;;;13.50;1.00;;;;;;4998761;28;20253;-89
2023/07/06 03:49:04;;;;;;;10.03;3.30;;;13.50;1.00;;;;;;4995281;28;20204;-86
2023/07/06 03:51:31;;;;;;;3.73;3.10;;;13.60;1.00;;;;;;4999680;28;20207;-88
2023/07/06 03:53:58;;;;;;;8.17;3.70;;;13.70;1.00;;;;;;4999564;28;20247;-88
2023/07/06 03:56:28;;;;;;;4.90;3.30;;;13.70;99.90;;;;;;4999171;28;20228;-89
2023/07/06 03:58:57;;;;;;;4.90;3.30;;;13.80;99.90;;;;;;4992594;28;20201;-88
2023/07/06 04:01:25;;;;;;;4.63;2.73;;;13.90;99.90;;;;;;4990902;28;20299;-91
2023/07/06 04:03:55;;;;;;;4.40;2.87;;;14.50;99.90;;;;;;5002602;28;20285;-88
2023/07/06 04:06:24;;;;;;;7.93;2.83;;;15.40;99.90;;;;;;5001076;28;20659;-88
2023/07/06 04:08:52;;;;;;;5.40;2.65;;;16.40;99.90;;;;;;5001974;28;20200;-90
2023/07/06 04:11:19;;;;;;;3.47;2.50;;;17.40;1.00;;;;;;5003662;28;20222;-87
2023/07/06 04:13:47;;;;;;;7.35;2.65;;;18.20;1.00;;;;;;5005079;28;20549;-92
2023/07/06 04:16:17;;;;;;;4.90;2.65;;;18.90;99.90;;;;;;5003646;28;20218;-87
2023/07/06 04:18:45;;;;;;;4.38;2.75;;;19.50;99.90;;;;;;5004261;28;20202;-89
2023/07/06 04:21:15;;;;;;;10.23;3.03;;;20.10;90.70;;;;;;5004708;28;20223;-89
2023/07/06 04:23:45;;;;;;;9.02;2.85;;;20.50;1.00;;;;;;5002536;28;20262;-89
2023/07/06 04:26:13;;;;;;;9.98;2.60;;;20.90;1.00;;;;;;5010191;28;20206;-90
2023/07/06 04:28:40;;;;;;;8.32;3.00;;;21.30;1.00;;;;;;4994623;28;20219;-92
2023/07/06 04:31:08;;;;;;;8.35;2.60;;;21.60;1.00;;;;;;4998405;28;20199;-90
2023/07/06 04:33:35;;;;;;;4.22;2.63;;;22.00;1.00;;;;;;4998570;28;20196;-89
2023/07/06 04:36:02;;;;;;;4.90;2.85;;;22.20;1.00;;;;;;4997637;28;20227;-90
2023/07/06 04:38:31;;;;;;;5.45;2.47;;;22.50;1.00;;;;;;5002455;28;20191;-90
2023/07/06 04:40:59;;;;;;;5.22;2.80;;;22.70;1.00;;;;;;5002195;28;20263;-92
2023/07/06 04:43:26;;;;;;;3.92;2.50;;;22.80;1.00;;;;;;5005838;28;20191;-88
2023/07/06 04:45:55;;;;;;;4.80;2.80;;;22.90;1.00;;;;;;5009914;28;20733;-91
2023/07/06 04:48:24;;;;;;;4.25;2.70;;;23.00;1.00;;;;;;5005059;28;20199;-90
2023/07/06 04:50:53;;;;;;;4.40;3.20;;;23.20;1.00;;;;;;4996402;28;20281;-90
2023/07/06 04:53:21;;;;;;;5.13;2.80;;;23.40;1.00;;;;;;4998707;28;20680;-90
2023/07/06 04:55:51;;;;;;;11.82;2.80;;;23.50;1.00;;;;;;4997934;28;20200;-90
2023/07/06 04:58:18;;;;;;;12.45;2.78;;;23.60;1.00;;;;;;4998234;28;20700;-90
2023/07/06 05:00:45;;;;;;;7.35;2.70;;;23.70;1.00;;;;;;4994879;28;20219;-90
2023/07/06 05:03:13;;;;;;;7.57;2.83;;;23.70;1.00;;;;;;5000231;28;20201;-90
2023/07/06 05:05:43;;;;;;;6.70;3.65;;;23.80;1.00;;;;;;5001636;28;20190;-91
2023/07/06 05:08:13;;;;;;;17.00;11.95;;;23.60;1.00;;;;;;5001090;28;20191;-92
2023/07/06 05:10:39;;;;;;;11.38;5.50;;;23.20;1.00;;;;;;4995762;28;20200;-90
2023/07/06 05:13:08;;;;;;;7.78;3.50;;;22.60;1.00;;;;;;5001357;28;20219;-91
2023/07/06 05:15:37;;;;;;;8.60;6.25;;;22.10;1.00;;;;;;5006086;28;20231;-89
2023/07/06 05:18:04;;;;;;;6.13;3.80;;;21.50;1.00;;;;;;5003308;28;20195;-90
2023/07/06 05:20:32;;;;;;;7.70;3.10;;;21.00;1.00;;;;;;5001644;28;20199;-90
2023/07/06 05:22:59;;;;;;;6.18;3.45;;;20.50;1.00;;;;;;5001315;28;20234;-91
2023/07/06 05:25:27;;;;;;;6.45;3.50;;;20.10;1.00;;;;;;5002248;28;20187;-88
2023/07/06 05:27:54;;;;;;;7.72;3.50;;;19.80;1.00;;;;;;5000917;28;20198;-90
2023/07/06 05:30:25;;;;;;;5.18;3.47;;;19.50;1.00;;;;;;4999820;28;20257;-90
2023/07/06 05:32:52;;;;;;;6.65;4.00;;;19.30;1.00;;;;;;5000818;28;20198;-90
2023/07/06 05:35:19;;;;;;;4.35;3.25;;;19.10;1.00;;;;;;5001229;28;20238;-90
2023/07/06 05:37:46;;;;;;;9.48;4.10;;;19.00;1.00;;;;;;4997194;28;20203;-90
2023/07/06 05:40:13;;;;;;;11.38;4.78;;;18.90;1.00;;;;;;4998575;28;20195;-90
2023/07/06 05:42:40;;;;;;;6.20;4.05;;;18.80;1.00;;;;;;4997427;28;20258;-90
2023/07/06 05:45:08;;;;;;;13.20;4.07;;;18.70;1.00;;;;;;4997215;28;20218;-90
2023/07/06 05:47:37;;;;;;;6.97;4.30;;;18.70;1.00;;;;;;4997305;28;20235;-90
2023/07/06 05:50:05;;;;;;;6.93;4.72;;;18.70;1.00;;;;;;4997972;28;20229;-89
2023/07/06 05:52:32;;;;;;;6.90;4.85;;;18.60;1.00;;;;;;4992231;28;20624;-92
2023/07/06 05:54:59;;;;;;;8.68;4.60;;;18.60;1.00;;;;;;4983472;28;20195;-89
2023/07/06 05:57:26;;;;;;;6.53;4.00;;;18.60;1.00;;;;;;4999043;28;20199;-91
2023/07/06 05:59:53;;;;;;;9.18;4.15;;;18.60;1.00;;;;;;4998434;28;20198;-90
2023/07/06 06:02:22;;;;;;;5.90;3.75;;;18.70;1.00;;;;;;4998732;28;20217;-89
2023/07/06 06:04:51;;;;;;;7.15;4.20;;;18.70;1.00;;;;;;4997420;28;20199;-89
2023/07/06 06:07:19;;;;;;;6.90;4.10;;;18.70;1.00;;;;;;4997945;28;20680;-91
2023/07/06 06:09:47;;;;;;;9.98;4.88;;;18.70;1.00;;;;;;4997669;28;20205;-89
2023/07/06 06:12:18;;;;;;;6.32;3.78;;;18.80;1.00;;;;;;4997261;28;20226;-89
2023/07/06 06:14:47;;;;;;;4.10;3.70;;;18.80;1.00;;;;;;4997753;28;20199;-90
2023/07/06 06:17:16;;;;;;;6.07;3.58;;;18.80;1.00;;;;;;4997640;28;20268;-90
2023/07/06 06:19:45;;;;;;;4.97;3.35;;;18.90;1.00;;;;;;4998695;28;20215;-90
2023/07/06 06:22:15;;;;;;;9.95;3.88;;;18.90;1.00;;;;;;4996652;28;20246;-88
2023/07/06 06:24:42;;;;;;;6.35;3.53;;;19.00;1.00;;;;;;4996831;28;20199;-90
2023/07/06 06:27:12;;;;;;;5.80;2.95;;;19.10;1.00;;;;;;4997203;28;20194;-89
2023/07/06 06:29:40;;;;;;;5.45;3.17;;;19.20;1.00;;;;;;4996914;28;20276;-90
2023/07/06 06:32:09;;;;;;;5.32;2.88;;;19.20;1.00;;;;;;4998598;28;20199;-89
2023/07/06 06:34:36;;;;;;;10.68;4.93;;;19.30;1.00;;;;;;4996280;28;20287;-90
2023/07/06 06:37:04;;;;;;;21.70;11.18;;;19.30;1.00;;;;;;4996757;28;20191;-91
2023/07/06 06:39:33;;;;;;;7.40;3.92;;;19.40;1.00;;;;;;4980346;28;20247;-88
2023/07/06 06:42:02;;;;;;;6.07;2.70;;;19.50;1.00;;;;;;4996601;28;20222;-89
2023/07/06 06:44:30;;;;;;;6.68;3.65;;;19.60;1.00;;;;;;4995618;28;20199;-89
2023/07/06 06:46:58;;;;;;;17.77;8.27;;;19.70;1.00;;;;;;4995252;28;20202;-89
2023/07/06 06:49:26;;;;;;;9.70;4.93;;;19.80;1.00;;;;;;4995391;28;20265;-90
2023/07/06 06:51:53;;;;;;;8.15;2.80;;;20.00;1.00;;;;;;4995783;28;20199;-89
2023/07/06 06:54:20;;;;;;;3.88;2.55;;;20.20;1.00;;;;;;4995443;28;20253;-91
2023/07/06 06:56:49;;;;;;;6.60;2.83;;;20.30;1.00;;;;;;4995084;28;20194;-89
2023/07/06 06:59:16;;;;;;;27.42;14.02;;;20.30;1.00;;;;;;4995782;28;20199;-90
2023/07/06 07:01:43;;;;;;;20.98;11.02;;;20.40;1.00;;;;;;4995147;28;20269;-89
2023/07/06 07:04:11;;;;;;;4.10;2.47;;;20.40;1.00;;;;;;4995712;28;20241;-89
2023/07/06 07:06:38;;;;;;;4.65;2.72;;;20.50;1.00;;;;;;4995379;28;20214;-88
2023/07/06 07:09:09;;;;;;;5.60;3.10;;;20.50;1.00;;;;;;4979042;28;20286;-88
2023/07/06 07:11:36;;;;;;;5.22;2.58;;;20.60;1.00;;;;;;4994519;28;20202;-90
2023/07/06 07:14:07;;;;;;;4.80;2.70;;;20.80;1.00;;;;;;4995124;28;20215;-89
2023/07/06 07:16:35;;;;;;;4.18;2.30;;;20.90;14.30;;;;;;4994557;28;20654;-88
2023/07/06 07:19:04;;;;;;;5.15;2.60;;;21.00;1.00;;;;;;4995208;28;20578;-90
2023/07/06 07:21:31;;;;;;;6.43;2.60;;;21.20;1.00;;;;;;4978992;28;20217;-89
2023/07/06 07:23:58;;;;;;;3.17;2.22;;;21.50;1.00;;;;;;4994925;28;20199;-89
2023/07/06 07:26:25;;;;;;;8.75;2.28;;;22.00;1.00;;;;;;4984203;28;20211;-90
2023/07/06 07:28:52;;;;;;;3.63;2.30;;;22.70;1.00;;;;;;4990065;28;20692;-90
2023/07/06 07:31:22;;;;;;;11.75;4.50;;;23.30;1.00;;;;;;4995114;28;20218;-92
2023/07/06 07:33:50;;;;;;;5.18;3.03;;;23.80;1.00;;;;;;4995313;28;20215;-90
2023/07/06 07:36:19;;;;;;;4.50;2.05;;;24.30;1.00;;;;;;4994749;28;20209;-90
2023/07/06 07:38:47;;;;;;;3.65;2.17;;;24.60;1.00;;;;;;4998745;28;20222;-91
2023/07/06 07:41:18;;;;;;;4.82;2.13;;;25.00;1.00;;;;;;4998789;28;20202;-91
2023/07/06 07:43:46;;;;;;;4.57;2.22;;;25.00;1.00;;;;;;4998211;28;20584;-90
2023/07/06 07:46:15;;;;;;;3.97;1.90;;;24.90;1.00;;;;;;4998488;28;20191;-91
2023/07/06 07:48:45;;;;;;;4.18;2.22;;;24.80;1.00;;;;;;4998232;28;20195;-90
2023/07/06 07:51:14;;;;;;;9.00;4.25;;;24.60;1.00;;;;;;4998684;28;20232;-88
2023/07/06 07:53:44;;;;;;;23.20;10.60;;;24.50;1.00;;;;;;4999118;28;20250;-91
2023/07/06 07:56:12;;;;;;;27.73;12.32;;;24.40;1.00;;;;;;4998058;28;20203;-89
2023/07/06 07:58:40;;;;;;;22.20;9.35;;;24.10;1.00;;;;;;4998283;28;20201;-88
2023/07/06 08:01:09;;;;;;;11.32;5.88;;;24.10;1.00;;;;;;4998767;28;20207;-90
2023/07/06 08:03:37;;;;;;;7.07;2.40;;;24.10;1.00;;;;;;4998479;28;20227;-90
2023/07/06 08:06:08;;;;;;;4.75;2.20;;;24.40;1.00;;;;;;4999054;28;20218;-88
2023/07/06 08:08:37;;;;;;;19.60;9.75;;;24.80;1.00;;;;;;4998477;28;20302;-89
2023/07/06 08:11:05;;;;;;;18.95;8.70;;;24.80;1.00;;;;;;4998226;28;20199;-88
2023/07/06 08:13:33;;;;;;;6.28;3.75;;;24.70;1.00;;;;;;4998552;28;20199;-91
2023/07/06 08:16:00;;;;;;;37.72;15.90;;;24.80;1.00;;;;;;4997835;28;20203;-89
2023/07/06 08:18:28;;;;;;;10.43;5.65;;;24.90;1.00;;;;;;4998036;28;20661;-89
2023/07/06 08:20:56;;;;;;;5.53;4.03;;;25.00;1.00;;;;;;4979270;28;20282;-89
2023/07/06 08:23:25;;;;;;;6.10;2.70;;;25.30;1.00;;;;;;4996746;28;20278;-92
2023/07/06 08:25:53;;;;;;;7.30;4.10;;;25.70;1.00;;;;;;4991354;28;20199;-92
2023/07/06 08:28:21;;;;;;;7.05;2.72;;;25.90;1.00;;;;;;4988855;28;20199;-91
2023/07/06 08:30:51;;;;;;;6.32;4.22;;;26.00;1.00;;;;;;4997798;28;20612;-91
2023/07/06 08:33:20;;;;;;;7.40;3.92;;;26.00;1.00;;;;;;4997730;28;20226;-91
2023/07/06 08:35:49;;;;;;;5.43;3.47;;;25.90;1.00;;;;;;4984498;28;20200;-90
2023/07/06 08:38:16;;;;;;;6.35;5.00;;;25.80;1.00;;;;;;4995539;28;20210;-90
2023/07/06 08:40:51;;;;;;;5.15;2.55;;;25.80;1.00;;;;;;4998663;28;20724;-91
2023/07/06 08:43:22;;;;;;;4.30;2.30;;;25.50;1.00;;;;;;4997373;28;20564;-89
2023/07/06 08:45:53;;;;;;;7.00;3.03;;;25.40;1.00;;;;;;4997831;28;20199;-92
2023/07/06 08:48:25;;;;;;;4.88;3.58;;;25.40;1.00;;;;;;4997282;28;20195;-90
2023/07/06 08:50:56;;;;;;;3.00;1.88;;;25.40;1.00;;;;;;4996957;28;20737;-91
2023/07/06 08:53:28;;;;;;;5.40;2.58;;;25.60;1.00;;;;;;4996888;28;20273;-90
2023/07/06 08:56:00;;;;;;;4.05;2.40;;;25.80;1.00;;;;;;4996836;28;20665;-92
2023/07/06 08:58:31;;;;;;;4.68;2.58;;;25.90;1.00;;;;;;4996672;28;20282;-89
2023/07/06 09:01:04;;;;;;;3.38;2.40;;;26.00;1.00;;;;;;4997277;28;20210;-89
2023/07/06 09:03:47;;;;;;;7.38;4.07;;;26.10;1.00;;;;;;4997385;28;20215;-90
2023/07/06 09:06:19;;;;;;;7.40;3.72;;;26.20;1.00;;;;;;4997304;28;20202;-89
2023/07/06 09:08:46;;;;;;;2.80;2.45;;;26.10;1.00;;;;;;4994963;28;20289;-91
2023/07/06 09:11:15;;;;;;;3.60;2.53;;;25.90;1.00;;;;;;4996837;28;20203;-92
2023/07/06 09:13:49;;;;;;;7.00;2.97;;;25.70;1.00;;;;;;4996982;28;20191;-89
2023/07/06 09:16:19;;;;;;;3.20;2.45;;;25.50;1.00;;;;;;4996921;28;20206;-90
2023/07/06 09:18:47;;;;;;;4.60;2.28;;;25.20;1.00;;;;;;4996717;28;20202;-92
2023/07/06 09:21:16;;;;;;;5.80;2.50;;;25.20;1.00;;;;;;4996838;28;20203;-90
2023/07/06 09:23:46;;;;;;;4.85;2.30;;;25.10;1.00;;;;;;4997039;28;20250;-90
2023/07/06 09:26:22;;;;;;;3.83;2.60;;;25.10;1.00;;;;;;4996975;28;20199;-89
2023/07/06 09:28:51;;;;;;;4.03;2.20;;;25.20;1.00;;;;;;4996678;28;20198;-91
2023/07/06 09:31:20;;;;;;;4.38;2.58;;;25.40;1.00;;;;;;4996016;28;20327;-90
2023/07/06 09:33:49;;;;;;;3.42;2.38;;;25.80;1.00;;;;;;4996416;28;20219;-89
2023/07/06 09:36:19;;;;;;;5.47;2.45;;;26.30;1.00;;;;;;4996256;28;20203;-89
2023/07/06 09:38:47;;;;;;;7.93;2.80;;;26.60;1.00;;;;;;4996354;28;20658;-90
2023/07/06 09:41:24;;;;;;;2.45;1.98;;;26.80;1.00;;;;;;4995832;28;20581;-90
2023/07/06 09:43:57;;;;;;;4.50;2.28;;;26.90;1.00;;;;;;4995767;28;20221;-92
2023/07/06 09:46:27;;;;;;;4.65;2.40;;;27.00;1.00;;;;;;4995919;28;20199;-90
2023/07/06 09:48:54;;;;;;;5.55;2.30;;;26.70;1.00;;;;;;4995351;28;20196;-89
2023/07/06 09:51:26;;;;;;;5.18;2.80;;;26.30;1.00;;;;;;4995574;28;20332;-91
2023/07/06 09:53:56;;;;;;;3.70;2.83;;;25.90;1.00;;;;;;4996122;28;20199;-90
2023/07/06 09:56:25;;;;;;;4.47;2.08;;;25.70;1.00;;;;;;4995707;28;20319;-90
2023/07/06 09:58:53;;;;;;;8.25;6.82;;;25.50;1.00;;;;;;4989649;28;20254;-90
2023/07/06 10:01:32;;;;;;;6.43;2.42;;;25.40;1.00;;;;;;4986802;28;20207;-90
2023/07/06 10:04:15;;;;;;;2.75;2.03;;;25.30;1.00;;;;;;4995927;28;20238;-89
2023/07/06 10:06:55;;;;;;;2.85;1.90;;;25.60;1.00;;;;;;4979329;28;20204;-90
2023/07/06 10:09:28;;;;;;;6.38;2.67;;;26.00;1.00;;;;;;4995509;28;20194;-91
2023/07/06 10:11:58;;;;;;;5.03;2.30;;;26.10;1.00;;;;;;4995855;28;20286;-90
2023/07/06 10:14:37;;;;;;;7.53;2.55;;;26.10;1.00;;;;;;4995017;28;20194;-90
2023/07/06 10:17:15;;;;;;;20.83;3.20;;;26.10;1.00;;;;;;4987916;28;20191;-92
2023/07/06 10:19:51;;;;;;;5.38;4.30;;;26.40;1.00;;;;;;4988687;28;20250;-91
2023/07/06 10:22:24;;;;;;;6.50;2.28;;;26.80;1.00;;;;;;4995450;28;20257;-90
2023/07/06 10:24:57;;;;;;;7.82;2.90;;;26.70;1.00;;;;;;4993222;28;20198;-91
2023/07/06 10:27:31;;;;;;;4.93;2.28;;;26.50;1.00;;;;;;4993701;28;20253;-91
2023/07/06 10:30:08;;;;;;;4.32;2.13;;;26.20;1.00;;;;;;5001346;28;20551;-94
2023/07/06 10:32:41;;;;;;;3.83;2.28;;;26.00;1.00;;;;;;4994453;28;20289;-94
2023/07/06 10:35:25;;;;;;;2.92;2.00;;;25.90;1.00;;;;;;4994430;28;20235;-92
2023/07/06 10:37:57;;;;;;;2.78;2.10;;;25.80;1.00;;;;;;4997315;28;20190;-94
2023/07/06 10:40:26;;;;;;;4.28;2.28;;;25.80;1.00;;;;;;5001521;28;20241;-95
2023/07/06 10:43:23;;;;;;;2.65;2.10;;;25.80;1.00;;;;;;5004005;28;20624;-92
2023/07/06 10:45:54;;;;;;;3.85;2.90;;;25.90;1.00;;;;;;4981875;28;20203;-92
2023/07/06 10:48:36;;;;;;;6.05;2.28;;;26.10;1.00;;;;;;5004547;28;20249;-94
2023/07/06 10:51:22;;;;;;;3.72;2.30;;;26.10;1.00;;;;;;5000115;28;20198;-93
2023/07/06 10:54:11;;;;;;;3.78;2.10;;;26.20;1.00;;;;;;5003623;28;20214;-93
2023/07/06 10:56:45;;;;;;;4.43;2.17;;;26.40;1.00;;;;;;5007706;28;20210;-95
2023/07/06 10:59:28;;;;;;;2.83;2.05;;;26.80;1.00;;;;;;4999644;28;20195;-95
2023/07/06 11:02:20;;;;;;;5.35;2.50;;;27.10;1.00;;;;;;5002630;28;20230;-95
2023/07/06 11:05:13;;;;;;;5.53;2.95;;;27.40;1.00;;;;;;5008913;28;20211;-94
2023/07/06 11:07:45;;;;;;;4.40;2.00;;;27.50;1.00;;;;;;5006210;28;20267;-93
2023/07/06 11:13:27;;;;;;;4.32;2.22;;;26.90;1.00;;;;;;5005362;28;20222;-94
2023/07/06 11:16:20;;;;;;;2.45;2.08;;;26.50;1.00;;;;;;4994494;28;20241;-94
2023/07/06 11:18:52;;;;;;;4.28;2.33;;;26.30;1.00;;;;;;5006643;28;20222;-94
2023/07/06 11:21:36;;;;;;;6.38;2.47;;;26.00;1.00;;;;;;4990985;28;20754;-91
2023/07/06 11:24:16;;;;;;;2.63;2.00;;;25.60;1.00;;;;;;5002855;28;20631;-93
2023/07/06 11:26:51;;;;;;;3.17;2.03;;;25.30;1.00;;;;;;5006347;28;20202;-95
2023/07/06 11:29:29;;;;;;;6.47;2.42;;;25.10;1.00;;;;;;5005375;28;20253;-94
2023/07/06 11:32:18;;;;;;;6.95;2.60;;;24.90;1.00;;;;;;5006289;28;20210;-92
2023/07/06 11:35:10;;;;;;;5.72;2.30;;;25.00;1.00;;;;;;5004905;28;20368;-93
2023/07/06 11:37:56;;;;;;;3.63;2.40;;;25.20;1.00;;;;;;5005569;28;20194;-94
2023/07/06 11:40:41;;;;;;;3.50;2.00;;;25.30;1.00;;;;;;5005955;28;20218;-96
2023/07/06 11:43:29;;;;;;;3.10;2.20;;;25.40;1.00;;;;;;5006569;28;20201;-93
2023/07/06 11:46:05;;;;;;;2.67;2.20;;;25.50;1.00;;;;;;4993268;28;20658;-91
2023/07/06 11:48:53;;;;;;;3.83;2.22;;;25.50;1.00;;;;;;5005232;28;20222;-94
2023/07/06 11:51:27;;;;;;;2.83;1.85;;;25.50;1.00;;;;;;4988353;28;20231;-91
2023/07/06 11:53:59;;;;;;;3.85;2.13;;;25.70;1.00;;;;;;5004350;28;20233;-94
2023/07/06 11:56:50;;;;;;;2.70;2.00;;;25.70;1.00;;;;;;5005482;28;20203;-94
2023/07/06 11:59:36;;;;;;;5.50;2.10;;;25.80;1.00;;;;;;5004611;28;20230;-92
2023/07/06 12:02:18;;;;;;;2.35;1.90;;;25.90;1.00;;;;;;5004820;28;20198;-94
2023/07/06 12:04:54;;;;;;;2.72;1.90;;;26.20;1.00;;;;;;5006684;28;20199;-94
2023/07/06 12:07:30;;;;;;;4.60;2.03;;;26.40;1.00;;;;;;5006885;28;20198;-93
2023/07/06 12:10:12;;;;;;;2.47;1.85;;;26.30;1.00;;;;;;5007010;28;20210;-93
2023/07/06 12:12:41;;;;;;;2.97;2.30;;;26.20;1.00;;;;;;5005839;28;20195;-95
2023/07/06 12:15:14;;;;;;;2.20;1.88;;;26.20;1.00;;;;;;5008203;28;20238;-93
2023/07/06 12:17:43;;;;;;;3.22;1.90;;;26.60;1.00;;;;;;5007200;28;20195;-94
2023/07/06 12:20:16;;;;;;;4.15;1.77;;;27.10;1.00;;;;;;5000771;28;20214;-93
2023/07/06 12:22:52;;;;;;;2.17;1.75;;;27.50;1.00;;;;;;4992487;28;20202;-91
2023/07/06 12:25:19;;;;;;;5.72;1.90;;;27.70;1.00;;;;;;4997111;28;20225;-92
2023/07/06 12:27:46;;;;;;;2.00;1.80;;;27.50;1.00;;;;;;4996909;28;20207;-91
2023/07/06 12:30:15;;;;;;;2.10;1.77;;;27.10;1.00;;;;;;4997195;28;20230;-90
2023/07/06 12:32:46;;;;;;;2.95;1.77;;;27.00;1.00;;;;;;4996953;28;20195;-91
2023/07/06 12:35:14;;;;;;;3.38;2.00;;;27.00;1.00;;;;;;4996639;28;20233;-89
2023/07/06 12:37:43;;;;;;;3.55;1.98;;;26.80;1.00;;;;;;4997088;28;20229;-92
2023/07/06 12:40:20;;;;;;;4.85;2.00;;;26.80;1.00;;;;;;4997166;28;20203;-89
2023/07/06 12:42:47;;;;;;;1.85;1.55;;;27.00;1.00;;;;;;4977702;28;20603;-93
2023/07/06 12:45:18;;;;;;;3.20;2.00;;;27.20;1.00;;;;;;4977231;28;20200;-90
2023/07/06 12:47:45;;;;;;;2.00;1.75;;;27.30;1.00;;;;;;4996099;28;20203;-92
2023/07/06 12:50:16;;;;;;;2.03;1.80;;;27.10;1.00;;;;;;4996731;28;20579;-90
2023/07/06 12:52:43;;;;;;;5.88;2.20;;;26.70;1.00;;;;;;4996645;28;20224;-91
2023/07/06 12:55:15;;;;;;;2.45;1.98;;;26.50;1.00;;;;;;4996432;28;20215;-92
2023/07/06 12:57:43;;;;;;;3.90;1.77;;;26.30;1.00;;;;;;4977362;28;20199;-90
2023/07/06 13:00:17;;;;;;;3.30;1.52;;;26.00;1.00;;;;;;4976710;28;20670;-90
2023/07/06 13:02:45;;;;;;;2.78;2.20;;;25.70;1.00;;;;;;4995681;28;20253;-90
2023/07/06 13:05:15;;;;;;;2.10;1.60;;;25.40;1.00;;;;;;4996282;28;20274;-91
2023/07/06 13:07:43;;;;;;;2.28;1.73;;;25.30;1.00;;;;;;4996253;28;20215;-90
2023/07/06 13:10:16;;;;;;;2.05;1.77;;;25.30;1.00;;;;;;4996521;28;20199;-90
2023/07/06 13:12:47;;;;;;;3.03;1.50;;;25.40;1.00;;;;;;4995986;28;20643;-90
2023/07/06 13:15:18;;;;;;;2.85;1.77;;;25.60;1.00;;;;;;4995734;28;20701;-90
2023/07/06 13:17:49;;;;;;;2.05;1.52;;;25.70;1.00;;;;;;4995810;28;20253;-91